Time;durP1;ratioP1;P1;durP2;ratioP2;P2;SDS_P1;SDS_P2;PMS_P1;PMS_P2;Temp;Humidity;BMP_temperature;BMP_pressure;BME280_temperature;BME280_humidity;BME280_pressure;Samples;Min_cycle;Max_cycle;Signal;HPM_P1;HPM_P2
2022/08/15 00:00:24;;;;;;;4.20;3.40;;;;;;;26.50;43.64;97734.41;6950550;28;20500;-80
2022/08/15 00:03:48;;;;;;;3.90;3.50;;;;;;;26.09;44.80;97734.28;6953398;28;20318;-81
2022/08/15 00:07:10;;;;;;;4.60;3.50;;;;;;;26.08;45.20;97732.63;6951278;28;20281;-81
2022/08/15 00:10:33;;;;;;;3.53;3.23;;;;;;;26.48;46.07;97735.91;6959141;28;20228;-81
2022/08/15 00:13:58;;;;;;;3.50;3.30;;;;;;;26.31;44.73;97706.38;6954461;28;20428;-80
2022/08/15 00:17:20;;;;;;;4.27;3.60;;;;;;;25.82;45.26;97726.38;6950783;28;20211;-80
2022/08/15 00:20:43;;;;;;;4.10;3.70;;;;;;;25.71;46.50;97733.38;6950307;28;20696;-80
2022/08/15 00:24:05;;;;;;;6.53;3.90;;;;;;;25.75;46.16;97730.75;6950577;28;20290;-80
2022/08/15 00:27:28;;;;;;;5.67;4.13;;;;;;;25.58;47.00;97733.56;6949991;28;20575;-79
2022/08/15 00:30:50;;;;;;;4.10;3.70;;;;;;;25.55;48.32;97732.25;6949896;28;20594;-80
2022/08/15 00:34:13;;;;;;;3.80;3.50;;;;;;;25.61;47.17;97722.66;6950603;28;20733;-79
2022/08/15 00:37:35;;;;;;;4.10;3.70;;;;;;;25.58;46.90;97728.03;6950314;28;20660;-80
2022/08/15 00:44:41;;;;;;;4.57;3.60;;;;;;;25.83;45.55;97750.06;6956357;28;20310;-79
2022/08/15 00:51:46;;;;;;;5.10;3.93;;;;;;;25.72;47.95;97754.31;6938338;28;20228;-80
2022/08/15 00:55:14;;;;;;;7.33;3.97;;;;;;;25.56;47.45;97752.41;6947790;28;20226;-79
2022/08/15 00:58:36;;;;;;;4.10;3.80;;;;;;;25.48;47.55;97761.50;6948886;28;20289;-79
2022/08/15 01:02:01;;;;;;;6.87;4.47;;;;;;;25.49;47.28;97752.88;6949068;28;20293;-80
2022/08/15 01:05:23;;;;;;;4.57;4.00;;;;;;;25.52;47.91;97749.50;6949049;28;20294;-80
2022/08/15 01:08:46;;;;;;;3.97;3.53;;;;;;;25.82;47.19;97751.22;6948680;28;20690;-79
2022/08/15 01:12:11;;;;;;;5.13;4.27;;;;;;;25.13;48.49;97719.28;6948671;28;20314;-80
2022/08/15 01:15:33;;;;;;;6.13;4.23;;;;;;;24.79;49.96;97751.53;6948517;28;20319;-80
2022/08/15 01:18:56;;;;;;;9.40;4.67;;;;;;;25.51;48.30;97747.88;6948061;28;20211;-80
2022/08/15 01:22:47;;;;;;;4.83;3.93;;;;;;;25.79;46.69;97760.16;6948505;28;20218;-79
2022/08/15 01:26:10;;;;;;;4.77;4.20;;;;;;;26.15;45.05;97749.53;6931350;28;20727;-80
2022/08/15 01:29:33;;;;;;;4.50;4.00;;;;;;;25.85;47.01;97744.22;6947576;28;20197;-81
2022/08/15 01:32:55;;;;;;;4.33;3.93;;;;;;;26.03;47.04;97743.91;6947873;28;20233;-81
2022/08/15 01:36:18;;;;;;;4.60;4.20;;;;;;;26.24;48.38;97753.06;6948332;28;20661;-80
2022/08/15 01:39:46;;;;;;;5.33;4.47;;;;;;;26.44;45.78;97746.81;6952371;28;20214;-80
2022/08/15 01:43:10;;;;;;;4.67;4.27;;;;;;;26.06;47.54;97706.47;6971110;28;20704;-80
2022/08/15 01:46:38;;;;;;;4.83;4.20;;;;;;;26.34;45.98;97744.41;6938599;28;20203;-80
2022/08/15 01:50:07;;;;;;;5.30;4.00;;;;;;;26.23;46.03;97751.44;6947261;28;20194;-79
2022/08/15 01:53:32;;;;;;;4.80;4.07;;;;;;;26.08;46.29;97746.44;6947317;28;20237;-80
2022/08/15 01:56:53;;;;;;;6.27;3.50;;;;;;;26.20;45.96;97748.53;6946701;28;20233;-80
2022/08/15 02:00:18;;;;;;;4.20;3.80;;;;;;;26.14;44.85;97694.59;6947450;28;20207;-80
2022/08/15 02:03:41;;;;;;;5.03;3.77;;;;;;;26.21;44.87;97756.50;6946909;28;20273;-79
2022/08/15 02:07:08;;;;;;;4.70;3.53;;;;;;;26.35;44.58;97765.38;6947590;28;20241;-80
2022/08/15 02:10:30;;;;;;;5.13;4.17;;;;;;;26.42;44.31;97768.44;6946787;28;20218;-80
2022/08/15 02:13:54;;;;;;;5.03;3.67;;;;;;;26.45;44.04;97781.59;6947809;28;20641;-80
2022/08/15 02:17:17;;;;;;;5.27;3.97;;;;;;;26.55;43.85;97785.97;6946173;28;20203;-80
2022/08/15 02:20:38;;;;;;;6.60;3.97;;;;;;;26.71;43.90;97785.06;6947092;28;20202;-80
2022/08/15 02:24:00;;;;;;;6.13;4.20;;;;;;;26.81;43.63;97783.88;6947354;28;20269;-80
2022/08/15 02:27:22;;;;;;;6.23;3.70;;;;;;;26.27;43.94;97697.13;6947028;28;20301;-80
2022/08/15 02:30:43;;;;;;;4.30;3.90;;;;;;;26.59;44.15;97771.16;6947136;28;20652;-79
2022/08/15 02:34:06;;;;;;;4.30;3.90;;;;;;;26.67;43.68;97784.09;6947271;28;20320;-79
2022/08/15 02:37:30;;;;;;;4.70;3.93;;;;;;;26.66;43.91;97776.97;6947259;28;20242;-80
2022/08/15 02:40:52;;;;;;;4.50;3.77;;;;;;;26.53;44.26;97761.38;6946772;28;20215;-79
2022/08/15 02:44:13;;;;;;;4.33;3.90;;;;;;;26.54;44.10;97763.03;6947000;28;20219;-79
2022/08/15 02:47:35;;;;;;;4.20;3.80;;;;;;;26.58;44.02;97743.81;6952134;28;20213;-80
2022/08/15 02:50:58;;;;;;;4.80;3.97;;;;;;;26.80;43.44;97751.84;6952104;28;20228;-79
2022/08/15 02:54:22;;;;;;;5.10;3.60;;;;;;;26.96;43.07;97773.03;6952038;28;20219;-80
2022/08/15 02:57:44;;;;;;;4.30;3.90;;;;;;;26.88;42.99;97762.84;6952116;28;20207;-80
2022/08/15 03:01:08;;;;;;;4.47;3.70;;;;;;;26.91;43.19;97767.72;6952376;28;20209;-80
2022/08/15 03:04:31;;;;;;;5.27;3.50;;;;;;;26.57;43.80;97770.69;6952148;28;20227;-80
2022/08/15 03:07:54;;;;;;;5.77;3.87;;;;;;;26.85;43.09;97751.66;6951686;28;20214;-80
2022/08/15 03:11:16;;;;;;;4.57;3.70;;;;;;;27.05;42.33;97770.22;6952344;28;20199;-80
2022/08/15 03:14:38;;;;;;;6.27;3.30;;;;;;;27.15;42.52;97790.03;6952530;28;20316;-79
2022/08/15 03:18:00;;;;;;;4.67;4.10;;;;;;;27.20;42.26;97792.59;6951393;28;20242;-80
2022/08/15 03:21:22;;;;;;;4.97;3.53;;;;;;;27.17;42.44;97784.16;6952154;28;20203;-79
2022/08/15 03:24:45;;;;;;;6.67;3.60;;;;;;;26.95;43.10;97785.25;6951554;28;20604;-79
2022/08/15 03:28:06;;;;;;;4.57;3.43;;;;;;;26.55;43.73;97783.22;6951025;28;20291;-80
2022/08/15 03:31:28;;;;;;;3.93;3.50;;;;;;;26.88;43.41;97789.69;6951950;28;20234;-79
2022/08/15 03:34:50;;;;;;;6.40;3.60;;;;;;;26.72;44.04;97786.69;6950892;28;20231;-79
2022/08/15 03:38:12;;;;;;;5.23;3.50;;;;;;;26.85;43.35;97771.00;6950723;28;20236;-79
2022/08/15 03:41:35;;;;;;;6.20;4.13;;;;;;;26.71;43.77;97793.38;6951011;28;20650;-80
2022/08/15 03:44:56;;;;;;;5.00;3.83;;;;;;;26.65;44.15;97777.31;6950914;28;20717;-79
2022/08/15 03:48:18;;;;;;;4.00;3.57;;;;;;;26.37;44.80;97790.72;6967037;28;20255;-80
2022/08/15 03:51:40;;;;;;;7.17;3.47;;;;;;;26.59;44.47;97793.25;6950375;28;20382;-80
2022/08/15 03:55:03;;;;;;;6.20;3.73;;;;;;;26.48;44.65;97800.28;6922318;28;20630;-80
2022/08/15 03:58:27;;;;;;;3.80;3.40;;;;;;;26.49;44.08;97785.31;6922761;28;20204;-80
2022/08/15 04:01:49;;;;;;;4.30;3.47;;;;;;;26.43;44.85;97794.94;6922645;28;20206;-80
2022/08/15 04:05:11;;;;;;;4.40;3.60;;;;;;;26.63;44.07;97801.72;6925584;28;20229;-80
2022/08/15 04:08:33;;;;;;;3.70;3.37;;;;;;;26.66;43.97;97812.13;6951702;28;20238;-80
2022/08/15 04:11:54;;;;;;;4.07;3.20;;;;;;;26.44;44.42;97785.50;6953010;28;20746;-80
2022/08/15 04:15:17;;;;;;;3.63;3.30;;;;;;;26.70;43.59;97786.22;6955340;28;20611;-81
2022/08/15 04:18:39;;;;;;;3.77;3.40;;;;;;;26.33;44.56;97788.97;6954590;28;20267;-81
2022/08/15 04:22:03;;;;;;;3.60;2.70;;;;;;;26.64;44.32;97792.25;6953379;28;20270;-80
2022/08/15 04:25:27;;;;;;;4.47;3.43;;;;;;;26.85;43.80;97791.16;6952771;28;20600;-80
2022/08/15 04:28:50;;;;;;;4.57;3.40;;;;;;;26.59;44.66;97798.78;6953413;28;20291;-80
2022/08/15 04:32:13;;;;;;;3.80;3.50;;;;;;;26.47;45.18;97793.13;6954096;28;20223;-80
2022/08/15 04:35:35;;;;;;;6.53;3.67;;;;;;;26.38;45.43;97778.53;6955340;28;20226;-81
2022/08/15 04:38:57;;;;;;;4.20;3.03;;;;;;;26.14;44.94;97799.59;6955617;28;20269;-80
2022/08/15 04:42:20;;;;;;;4.33;3.07;;;;;;;26.31;45.02;97811.41;6952935;28;20212;-81
2022/08/15 04:45:42;;;;;;;6.90;2.73;;;;;;;26.03;45.43;97801.09;6952376;28;20214;-80
2022/08/15 04:49:05;;;;;;;3.37;3.03;;;;;;;26.34;44.82;97804.41;6952801;28;20222;-80
2022/08/15 04:52:26;;;;;;;4.13;2.63;;;;;;;26.00;45.58;97790.69;6951795;28;20285;-80
2022/08/15 04:55:49;;;;;;;4.47;2.87;;;;;;;26.29;44.92;97805.41;6951101;28;20300;-80
2022/08/15 04:59:10;;;;;;;5.07;3.17;;;;;;;26.38;45.09;97821.94;6951696;28;20238;-80
2022/08/15 05:02:32;;;;;;;5.03;3.10;;;;;;;26.32;45.40;97810.25;6952602;28;20203;-80
2022/08/15 05:05:58;;;;;;;4.53;3.13;;;;;;;26.05;45.97;97821.72;6949716;28;20290;-81
2022/08/15 05:09:19;;;;;;;3.90;2.83;;;;;;;25.83;46.55;97799.00;6941374;28;20318;-79
2022/08/15 05:12:41;;;;;;;4.53;2.83;;;;;;;25.98;46.51;97818.66;6947189;28;20587;-79
2022/08/15 05:16:07;;;;;;;4.47;3.27;;;;;;;26.07;45.67;97800.09;6942751;28;20216;-79
2022/08/15 05:19:30;;;;;;;4.23;2.70;;;;;;;26.48;44.92;97805.81;6949088;28;20192;-79
2022/08/15 05:22:54;;;;;;;3.10;2.80;;;;;;;26.37;45.35;97803.75;6949049;28;20232;-80
2022/08/15 05:26:16;;;;;;;3.53;2.77;;;;;;;25.41;46.63;97784.06;6948014;28;20579;-79
2022/08/15 05:29:38;;;;;;;3.37;2.77;;;;;;;25.83;46.34;97797.03;6949965;28;20571;-79
2022/08/15 05:33:05;;;;;;;3.30;3.00;;;;;;;25.45;47.11;97801.63;6953731;28;20234;-80
2022/08/15 05:36:26;;;;;;;3.03;2.77;;;;;;;25.67;46.86;97808.91;6948589;28;20298;-79
2022/08/15 05:39:50;;;;;;;3.20;2.90;;;;;;;25.81;46.27;97802.06;6947376;28;20241;-80
2022/08/15 05:43:18;;;;;;;4.93;3.03;;;;;;;25.61;46.88;97818.50;6947776;28;20230;-80
2022/08/15 05:46:46;;;;;;;3.40;2.70;;;;;;;25.63;47.32;97810.69;6948090;28;20255;-81
2022/08/15 05:50:12;;;;;;;3.47;3.00;;;;;;;25.67;46.92;97806.94;6947790;28;20664;-80
2022/08/15 05:53:43;;;;;;;3.37;2.73;;;;;;;25.60;47.46;97812.16;6948809;28;20653;-80
2022/08/15 05:57:11;;;;;;;3.40;2.83;;;;;;;25.58;47.41;97797.03;6969247;28;20195;-82
2022/08/15 06:00:33;;;;;;;2.80;2.60;;;;;;;25.04;48.73;97801.22;6956999;28;20219;-80
2022/08/15 06:03:59;;;;;;;4.07;2.53;;;;;;;25.30;48.07;97804.84;6949841;28;20245;-83
2022/08/15 06:07:22;;;;;;;3.27;2.97;;;;;;;25.01;49.07;97799.09;6949165;28;20279;-80
2022/08/15 06:10:45;;;;;;;4.27;3.03;;;;;;;25.38;47.57;97759.91;6949474;28;20216;-80
2022/08/15 06:14:20;;;;;;;3.73;2.70;;;;;;;25.89;46.31;97803.19;6950033;28;20261;-79
2022/08/15 06:17:43;;;;;;;4.33;2.80;;;;;;;25.86;46.78;97798.31;6942628;28;20206;-79
2022/08/15 06:21:09;;;;;;;2.57;2.37;;;;;;;26.37;45.19;97787.97;6953292;28;20261;-79
2022/08/15 06:24:37;;;;;;;2.50;2.23;;;;;;;26.01;45.82;97778.50;6957099;28;20222;-80
2022/08/15 06:28:08;;;;;;;3.50;2.67;;;;;;;26.05;46.08;97779.44;6944148;28;20204;-80
2022/08/15 06:31:33;;;;;;;2.70;2.47;;;;;;;26.55;44.61;97788.75;6926554;28;20342;-81
2022/08/15 06:35:00;;;;;;;2.63;2.30;;;;;;;26.49;44.96;97801.09;6926873;28;20233;-81
2022/08/15 06:38:26;;;;;;;3.30;2.60;;;;;;;26.48;44.87;97799.47;6925948;28;20266;-81
2022/08/15 06:41:52;;;;;;;5.53;2.70;;;;;;;26.18;46.16;97806.09;6928003;28;20768;-80
2022/08/15 06:45:19;;;;;;;3.57;2.83;;;;;;;26.04;46.51;97811.00;6926297;28;20228;-81
2022/08/15 06:48:42;;;;;;;4.73;2.80;;;;;;;25.67;48.27;97803.38;6926939;28;20230;-81
2022/08/15 06:52:04;;;;;;;4.27;2.70;;;;;;;25.66;48.58;97821.88;6925097;28;20221;-80
2022/08/15 06:55:33;;;;;;;3.10;2.77;;;;;;;26.00;47.14;97827.41;6939263;28;20238;-80
2022/08/15 06:58:59;;;;;;;3.43;2.57;;;;;;;25.50;47.96;97822.72;6947066;28;20735;-80
2022/08/15 07:02:35;;;;;;;3.70;2.60;;;;;;;26.26;45.45;97839.22;6925768;28;20204;-80
2022/08/15 07:05:58;;;;;;;2.67;2.40;;;;;;;25.43;46.20;97828.72;6925725;28;20252;-80
2022/08/15 07:09:35;;;;;;;3.17;2.70;;;;;;;26.40;43.87;97841.78;6925023;28;20208;-80
2022/08/15 07:13:02;;;;;;;3.53;2.67;;;;;;;25.90;45.26;97846.28;6932135;28;20776;-80
2022/08/15 07:16:28;;;;;;;2.60;2.40;;;;;;;25.98;45.11;97823.34;6952000;28;20199;-80
2022/08/15 07:19:50;;;;;;;3.73;2.80;;;;;;;26.37;43.75;97828.63;6952509;28;20197;-80
2022/08/15 07:23:22;;;;;;;2.40;2.20;;;;;;;27.58;41.77;97845.09;6952942;28;20228;-80
2022/08/15 07:26:47;;;;;;;3.97;2.40;;;;;;;27.85;40.86;97850.13;6952332;28;20219;-80
2022/08/15 07:30:19;;;;;;;4.70;2.70;;;;;;;27.46;41.63;97850.56;6951857;28;20266;-80
2022/08/15 07:33:44;;;;;;;3.53;2.70;;;;;;;27.34;41.78;97837.47;6952176;28;20241;-79
2022/08/15 07:37:07;;;;;;;2.90;2.60;;;;;;;27.45;41.35;97849.75;6947287;28;20773;-79
2022/08/15 07:40:33;;;;;;;4.63;2.43;;;;;;;26.83;41.54;97778.84;6951944;28;20211;-81
2022/08/15 07:43:59;;;;;;;3.83;2.50;;;;;;;26.45;43.08;97823.06;6929823;28;20223;-80
2022/08/15 07:47:25;;;;;;;2.47;2.27;;;;;;;27.79;40.64;97843.16;6936564;28;20201;-80
2022/08/15 07:51:03;;;;;;;2.80;2.23;;;;;;;28.75;38.22;97849.81;6936321;28;20240;-80
2022/08/15 07:54:28;;;;;;;4.17;2.30;;;;;;;29.27;37.24;97852.72;6951809;28;20247;-81
2022/08/15 07:58:01;;;;;;;5.70;2.30;;;;;;;28.70;37.95;97844.50;6951873;28;20658;-81
2022/08/15 08:01:27;;;;;;;2.50;2.30;;;;;;;27.96;39.26;97843.78;6952753;28;20188;-80
2022/08/15 08:04:49;;;;;;;3.13;2.57;;;;;;;28.17;39.11;97821.56;6964485;28;20292;-80
2022/08/15 08:08:11;;;;;;;5.03;2.30;;;;;;;28.37;38.44;97851.25;6946010;28;20581;-81
2022/08/15 08:11:41;;;;;;;2.63;2.30;;;;;;;28.70;38.32;97843.66;6924522;28;20217;-80
2022/08/15 08:15:14;;;;;;;5.73;2.80;;;;;;;29.01;38.10;97832.88;6924798;28;20323;-80
2022/08/15 08:18:44;;;;;;;4.23;2.40;;;;;;;28.93;37.47;97814.31;6943553;28;20274;-80
2022/08/15 08:22:17;;;;;;;2.20;2.00;;;;;;;28.83;37.97;97837.78;6951858;28;20191;-80
2022/08/15 08:25:45;;;;;;;2.50;2.30;;;;;;;28.78;38.20;97846.34;6951813;28;20639;-81
2022/08/15 08:29:12;;;;;;;2.30;2.10;;;;;;;28.36;38.75;97841.28;6950990;28;20232;-80
2022/08/15 08:32:44;;;;;;;2.43;2.07;;;;;;;28.00;38.37;97818.97;6951696;28;20511;-81
2022/08/15 08:36:11;;;;;;;3.30;2.30;;;;;;;29.09;37.13;97838.28;6951472;28;20208;-83
2022/08/15 08:39:41;;;;;;;3.73;2.20;;;;;;;30.49;34.35;97839.69;6948319;28;20656;-83
2022/08/15 08:43:09;;;;;;;2.43;2.23;;;;;;;30.57;33.65;97824.00;6949980;28;20708;-82
2022/08/15 08:46:56;;;;;;;3.10;2.10;;;;;;;29.66;35.77;97832.56;6951011;28;20197;-81
2022/08/15 08:50:25;;;;;;;2.77;1.93;;;;;;;29.04;37.06;97832.97;6935549;28;20249;-80
2022/08/15 08:53:54;;;;;;;2.50;2.30;;;;;;;28.93;36.63;97779.06;6924139;28;20720;-80
2022/08/15 08:57:20;;;;;;;3.90;2.07;;;;;;;30.80;34.13;97848.13;6925408;28;20209;-80
2022/08/15 09:00:44;;;;;;;3.07;2.43;;;;;;;31.17;33.46;97835.50;6923603;28;20198;-80
2022/08/15 09:04:10;;;;;;;2.50;2.07;;;;;;;31.89;32.25;97834.00;6924238;28;20229;-80
2022/08/15 09:07:35;;;;;;;3.27;2.07;;;;;;;31.11;32.72;97820.25;6924106;28;20381;-81
2022/08/15 09:11:00;;;;;;;3.00;2.00;;;;;;;30.05;35.02;97824.16;6924588;28;20190;-80
2022/08/15 09:14:26;;;;;;;3.07;1.83;;;;;;;31.42;32.47;97836.91;6938899;28;20238;-80
2022/08/15 09:17:51;;;;;;;3.50;1.87;;;;;;;32.01;31.49;97847.81;6950316;28;20302;-80
2022/08/15 09:21:13;;;;;;;2.40;2.10;;;;;;;31.68;31.77;97831.53;6949501;28;20213;-80
2022/08/15 09:24:36;;;;;;;2.20;1.90;;;;;;;30.41;34.25;97837.91;6950777;28;20317;-80
2022/08/15 09:28:05;;;;;;;2.00;1.90;;;;;;;31.02;33.09;97832.75;6950813;28;20228;-80
2022/08/15 09:31:28;;;;;;;3.20;1.80;;;;;;;31.13;33.48;97831.03;6949666;28;20184;-80
2022/08/15 09:35:04;;;;;;;2.10;2.00;;;;;;;30.96;32.98;97840.56;6951130;28;20693;-80
2022/08/15 09:38:35;;;;;;;3.53;2.00;;;;;;;31.47;32.37;97839.44;6951767;28;20192;-80
2022/08/15 09:42:10;;;;;;;2.00;1.90;;;;;;;30.85;33.12;97821.97;6956390;28;20206;-84
2022/08/15 09:45:44;;;;;;;2.10;1.90;;;;;;;32.96;29.71;97823.31;6955944;28;20234;-81
2022/08/15 09:49:17;;;;;;;3.47;1.93;;;;;;;33.10;29.58;97831.13;6948290;28;20197;-81
2022/08/15 09:52:45;;;;;;;2.40;1.93;;;;;;;32.97;29.28;97791.41;6948131;28;20222;-78
2022/08/15 09:56:11;;;;;;;1.83;1.70;;;;;;;32.66;29.77;97802.81;6948786;28;20257;-80
2022/08/15 09:59:36;;;;;;;4.03;3.33;;;;;;;33.19;28.95;97806.53;6946541;28;20229;-80
2022/08/15 10:03:01;;;;;;;5.10;2.90;;;;;;;32.86;29.66;97803.59;6922017;28;20320;-80
2022/08/15 10:06:24;;;;;;;3.57;1.97;;;;;;;31.28;31.83;97775.31;6923090;28;20211;-79
2022/08/15 10:10:10;;;;;;;3.50;2.07;;;;;;;32.57;29.83;97805.06;6921658;28;20287;-80
2022/08/15 10:14:05;;;;;;;4.03;2.03;;;;;;;32.90;29.68;97793.31;6922382;28;20235;-79
2022/08/15 10:17:40;;;;;;;3.80;2.20;;;;;;;32.78;30.17;97794.28;6947801;28;20209;-81
2022/08/15 10:21:18;;;;;;;2.57;2.10;;;;;;;33.02;29.68;97793.88;6944027;28;20195;-81
2022/08/15 10:24:39;;;;;;;6.27;2.17;;;;;;;32.86;29.36;97756.13;6954456;28;20796;-80
2022/08/15 10:28:05;;;;;;;3.80;2.20;;;;;;;33.44;28.78;97786.16;6954025;28;20217;-79
2022/08/15 10:31:29;;;;;;;2.57;2.37;;;;;;;32.45;30.43;97790.50;6948736;28;20195;-79
2022/08/15 10:34:59;;;;;;;2.10;2.00;;;;;;;32.82;29.91;97784.00;6949191;28;20754;-79
2022/08/15 10:38:25;;;;;;;3.00;2.13;;;;;;;32.64;30.56;97788.44;6923864;28;20265;-79
2022/08/15 10:41:59;;;;;;;3.30;2.30;;;;;;;33.40;28.91;97782.53;6939398;28;20217;-79
2022/08/15 10:45:27;;;;;;;2.40;2.20;;;;;;;33.26;29.01;97782.28;6953606;28;20227;-77
2022/08/15 10:49:01;;;;;;;4.07;2.40;;;;;;;33.61;29.34;97762.44;6953122;28;20214;-80
2022/08/15 10:52:33;;;;;;;2.10;1.90;;;;;;;34.13;27.48;97774.28;6947203;28;20237;-80
2022/08/15 10:56:08;;;;;;;2.07;1.80;;;;;;;34.68;26.30;97769.66;6947481;28;20325;-80
2022/08/15 10:59:36;;;;;;;4.43;2.10;;;;;;;34.05;27.79;97761.41;6947358;28;20196;-81
2022/08/15 11:03:02;;;;;;;2.27;2.10;;;;;;;33.44;27.60;97749.03;6948207;28;21103;-79
2022/08/15 11:06:25;;;;;;;2.47;2.27;;;;;;;33.57;27.96;97759.59;6949933;28;20636;-81
2022/08/15 11:09:55;;;;;;;2.30;2.10;;;;;;;33.17;27.98;97764.16;6952836;28;20564;-82
2022/08/15 11:13:23;;;;;;;2.10;2.00;;;;;;;34.11;26.91;97759.06;6945824;28;20259;-79
2022/08/15 11:16:51;;;;;;;2.50;2.30;;;;;;;34.12;27.03;97753.09;6952716;28;20281;-81
2022/08/15 11:20:16;;;;;;;2.23;2.00;;;;;;;33.44;27.15;97752.59;6953044;28;20274;-80
2022/08/15 11:23:41;;;;;;;2.40;2.10;;;;;;;32.78;28.60;97757.19;6953910;28;20238;-80
2022/08/15 11:27:13;;;;;;;3.17;2.20;;;;;;;33.72;27.38;97755.00;6954558;28;20207;-80
2022/08/15 11:30:38;;;;;;;2.43;2.20;;;;;;;34.53;26.26;97756.69;6948092;28;20277;-80
2022/08/15 11:33:59;;;;;;;2.27;2.07;;;;;;;34.51;26.12;97681.50;6953290;28;20241;-81
2022/08/15 11:37:24;;;;;;;3.40;2.20;;;;;;;34.37;26.46;97744.97;6952362;28;20207;-80
2022/08/15 11:40:52;;;;;;;2.03;1.90;;;;;;;34.58;26.44;97726.38;6952032;28;20286;-80
2022/08/15 11:44:15;;;;;;;2.30;2.10;;;;;;;34.74;25.62;97735.31;6950822;28;20222;-80
2022/08/15 11:47:44;;;;;;;3.40;2.20;;;;;;;34.78;25.22;97733.34;6945878;28;20724;-80
2022/08/15 11:51:09;;;;;;;2.40;2.20;;;;;;;34.47;26.02;97722.66;6951641;28;20214;-80
2022/08/15 11:54:30;;;;;;;2.13;2.03;;;;;;;33.62;27.34;97731.31;6951007;28;20273;-80
2022/08/15 11:57:55;;;;;;;2.67;2.20;;;;;;;34.13;26.67;97726.69;6950949;28;20242;-80
2022/08/15 12:01:23;;;;;;;5.27;2.30;;;;;;;32.86;27.46;97719.81;6952056;28;20405;-81
2022/08/15 12:04:47;;;;;;;2.43;2.23;;;;;;;34.84;25.38;97728.22;6951381;28;20229;-80
2022/08/15 12:08:08;;;;;;;2.23;2.03;;;;;;;34.92;25.22;97713.88;6930439;28;20698;-79
2022/08/15 12:11:30;;;;;;;2.30;2.10;;;;;;;34.76;24.99;97710.53;6926890;28;20205;-78
2022/08/15 12:14:57;;;;;;;2.40;2.20;;;;;;;34.68;25.46;97710.84;6949336;28;20369;-79
2022/08/15 12:18:33;;;;;;;2.17;2.00;;;;;;;35.08;24.59;97722.75;6949369;28;20192;-78
2022/08/15 12:21:55;;;;;;;2.80;2.30;;;;;;;33.57;26.00;97708.47;6951633;28;20207;-79
2022/08/15 12:25:18;;;;;;;3.00;1.93;;;;;;;34.38;25.53;97708.16;6953044;28;20219;-79
2022/08/15 12:28:42;;;;;;;2.90;2.30;;;;;;;35.19;24.37;97717.22;6971225;28;20294;-80
2022/08/15 12:32:05;;;;;;;2.30;2.10;;;;;;;35.77;22.81;97709.53;6950761;28;20730;-80
2022/08/15 12:35:30;;;;;;;3.13;2.10;;;;;;;35.85;23.44;97706.34;6950030;28;20242;-79
2022/08/15 12:38:52;;;;;;;3.97;2.20;;;;;;;35.30;23.74;97688.06;6950035;28;20710;-81
2022/08/15 12:42:23;;;;;;;2.03;1.93;;;;;;;35.34;23.84;97708.53;6943351;28;20200;-80
2022/08/15 12:45:45;;;;;;;2.20;2.00;;;;;;;34.91;24.40;97663.81;6942833;28;20203;-80
2022/08/15 12:49:07;;;;;;;2.30;2.10;;;;;;;34.94;23.98;97668.63;6950137;28;20276;-80
2022/08/15 12:52:30;;;;;;;2.40;2.20;;;;;;;34.78;23.94;97702.53;6951358;28;20209;-79
2022/08/15 12:55:52;;;;;;;2.93;1.93;;;;;;;35.05;23.53;97709.53;6951504;28;20225;-79
2022/08/15 12:59:14;;;;;;;3.43;2.10;;;;;;;35.29;24.05;97680.88;6950639;28;20677;-80
2022/08/15 13:02:37;;;;;;;3.00;2.07;;;;;;;35.22;23.56;97700.44;6952145;28;20208;-80
2022/08/15 13:06:03;;;;;;;2.33;2.13;;;;;;;35.32;23.06;97696.09;6952240;28;20290;-80
2022/08/15 13:09:33;;;;;;;4.73;2.33;;;;;;;35.52;23.17;97691.78;6950525;28;20202;-80
2022/08/15 13:12:55;;;;;;;2.83;2.10;;;;;;;35.18;23.30;97670.75;6951166;28;20754;-80
2022/08/15 13:16:18;;;;;;;3.70;2.10;;;;;;;35.20;23.21;97673.97;6950189;28;20235;-80
2022/08/15 13:23:38;;;;;;;3.30;2.17;;;;;;;35.26;23.60;97667.63;6924969;28;20596;-81
2022/08/15 13:27:01;;;;;;;23.23;9.53;;;;;;;35.43;23.90;97654.91;6924651;28;20917;-82
2022/08/15 13:30:23;;;;;;;8.47;3.77;;;;;;;34.85;24.59;97660.56;6923964;28;20200;-80
2022/08/15 13:33:45;;;;;;;3.33;2.30;;;;;;;34.75;24.10;97660.50;6923682;28;20239;-80
2022/08/15 13:37:08;;;;;;;2.60;2.40;;;;;;;34.79;24.28;97672.53;6927188;28;20224;-78
2022/08/15 13:40:30;;;;;;;3.03;2.30;;;;;;;34.63;24.23;97658.81;6926247;28;20582;-80
2022/08/15 13:43:53;;;;;;;2.73;2.37;;;;;;;34.66;24.34;97648.81;6928530;28;20224;-79
2022/08/15 13:47:17;;;;;;;2.50;2.30;;;;;;;34.72;24.62;97653.66;6922135;28;20669;-79
2022/08/15 13:50:41;;;;;;;2.53;2.30;;;;;;;33.86;25.22;97646.09;6937548;28;20212;-79
2022/08/15 13:54:04;;;;;;;3.13;2.17;;;;;;;33.32;25.93;97660.63;6929115;28;20227;-80
2022/08/15 13:57:26;;;;;;;3.40;2.20;;;;;;;32.16;27.12;97665.56;6923578;28;20726;-80
2022/08/15 14:00:49;;;;;;;2.60;2.40;;;;;;;32.95;26.55;97661.72;6921410;28;20341;-80
2022/08/15 14:04:13;;;;;;;2.80;2.20;;;;;;;33.09;27.02;97662.72;6921179;28;20780;-81
2022/08/15 14:07:36;;;;;;;3.73;2.33;;;;;;;33.32;26.68;97652.25;6921003;28;20204;-81
2022/08/15 14:10:58;;;;;;;3.97;2.40;;;;;;;32.96;26.76;97650.16;6920835;28;20211;-80
2022/08/15 14:14:20;;;;;;;2.60;2.40;;;;;;;32.92;26.84;97663.28;6919070;28;20318;-80
2022/08/15 14:17:45;;;;;;;2.47;2.27;;;;;;;33.29;26.42;97655.81;6928113;28;20261;-80
2022/08/15 14:21:07;;;;;;;2.30;2.10;;;;;;;33.61;26.18;97654.19;6947925;28;20220;-80
2022/08/15 14:24:29;;;;;;;4.60;2.30;;;;;;;33.56;26.99;97629.38;6947251;28;20230;-80
2022/08/15 14:27:52;;;;;;;4.33;2.60;;;;;;;33.88;26.81;97630.53;6942880;28;20699;-80
2022/08/15 14:31:15;;;;;;;2.73;2.43;;;;;;;33.64;27.12;97619.88;6946737;28;20744;-79
2022/08/15 14:34:38;;;;;;;4.23;2.50;;;;;;;33.62;29.57;97635.44;6947944;28;20735;-79
2022/08/15 14:38:01;;;;;;;3.07;2.60;;;;;;;33.93;26.86;97635.78;6957440;28;20198;-80
2022/08/15 14:41:22;;;;;;;3.73;2.43;;;;;;;33.78;26.93;97639.63;6969048;28;20592;-80
2022/08/15 14:44:45;;;;;;;3.47;2.40;;;;;;;34.33;25.63;97635.78;6954378;28;20227;-81
2022/08/15 14:48:07;;;;;;;2.40;2.13;;;;;;;34.47;25.61;97644.28;6952661;28;20264;-81
2022/08/15 14:51:33;;;;;;;4.60;2.70;;;;;;;31.98;28.10;97637.41;6953287;28;20211;-80
2022/08/15 14:54:56;;;;;;;3.73;2.57;;;;;;;32.12;28.23;97646.00;6953069;28;20223;-80
2022/08/15 14:58:18;;;;;;;3.90;2.43;;;;;;;32.66;27.68;97662.47;6952273;28;20205;-79
2022/08/15 15:01:40;;;;;;;3.80;2.40;;;;;;;32.23;28.81;97660.94;6953339;28;20725;-80
2022/08/15 15:05:05;;;;;;;4.13;2.90;;;;;;;32.08;29.12;97667.44;6953267;28;20714;-80
2022/08/15 15:08:28;;;;;;;5.70;2.70;;;;;;;31.05;29.59;97604.50;6950413;28;20215;-80
2022/08/15 15:11:50;;;;;;;4.27;2.50;;;;;;;31.19;30.43;97701.50;6953768;28;20688;-80
2022/08/15 15:15:13;;;;;;;6.87;2.90;;;;;;;30.23;33.02;97700.34;6947451;28;20373;-80
2022/08/15 15:18:49;;;;;;;6.10;2.80;;;;;;;29.29;35.46;97756.81;6952290;28;20197;-80
2022/08/15 15:22:11;;;;;;;6.53;2.67;;;;;;;28.18;38.00;97787.19;6842382;29;20567;-80
2022/08/15 15:25:34;;;;;;;7.93;2.90;;;;;;;28.23;38.31;97832.13;6841953;29;20232;-79
2022/08/15 15:28:56;;;;;;;3.93;3.00;;;;;;;27.79;43.89;97854.25;6840294;29;20218;-80
2022/08/15 15:32:18;;;;;;;6.17;3.10;;;;;;;26.73;50.02;97867.72;6841542;29;20201;-81
2022/08/15 15:35:40;;;;;;;9.30;3.37;;;;;;;26.58;50.39;97863.53;6840539;29;20313;-78
2022/08/15 15:39:05;;;;;;;3.40;3.10;;;;;;;26.46;52.90;97874.44;6839806;29;20672;-78
2022/08/15 15:42:28;;;;;;;5.37;3.20;;;;;;;25.99;52.51;97892.09;6840640;29;20206;-80
2022/08/15 15:45:50;;;;;;;8.43;3.40;;;;;;;26.23;53.38;97895.16;6840781;29;20207;-78
2022/08/15 15:49:16;;;;;;;4.67;3.00;;;;;;;26.47;51.17;97912.00;6835103;28;20221;-79
2022/08/15 15:52:39;;;;;;;4.90;3.10;;;;;;;26.81;50.13;97916.66;6835620;28;20233;-78
2022/08/15 15:56:01;;;;;;;6.10;3.27;;;;;;;26.87;49.73;97913.38;6838560;29;20370;-79
2022/08/15 15:59:24;;;;;;;6.40;3.30;;;;;;;26.36;50.54;97902.44;6909818;28;20692;-78
2022/08/15 16:02:49;;;;;;;4.27;3.00;;;;;;;26.78;50.79;97892.44;6938217;28;20226;-78
2022/08/15 16:06:12;;;;;;;6.13;3.10;;;;;;;26.64;49.16;97895.41;6922728;28;20204;-78
2022/08/15 16:09:34;;;;;;;5.50;3.20;;;;;;;26.79;50.55;97900.38;6921799;28;20268;-78
2022/08/15 16:12:57;;;;;;;5.53;3.20;;;;;;;26.49;50.40;97878.50;6934829;28;20227;-78
2022/08/15 16:16:24;;;;;;;4.23;3.10;;;;;;;26.55;50.38;97863.41;6925954;28;20309;-77